createdAt,value
2018-06-18T19:39:10.005Z,20.00
2018-06-18T19:41:44.033Z,19.90
2018-06-18T19:44:18.524Z,20.00
2018-06-18T19:47:07.321Z,20.00
2018-06-18T19:52:15.928Z,20.00
2018-06-18T19:54:53.932Z,20.00
2018-06-18T19:57:32.918Z,20.00
2018-06-18T20:00:07.181Z,20.00
2018-06-18T20:02:41.194Z,20.00
2018-06-18T20:08:00.474Z,19.90
2018-06-18T20:10:35.242Z,19.90
2018-06-18T20:13:13.806Z,19.90
2018-06-18T20:15:48.163Z,20.00
2018-06-18T20:18:22.652Z,19.90
2018-06-18T20:20:57.246Z,19.90
2018-06-18T20:23:31.888Z,19.90
2018-06-18T20:26:11.121Z,19.80
2018-06-18T20:28:45.636Z,19.80
2018-06-18T20:31:25.369Z,19.80
2018-06-18T20:33:59.805Z,19.80
2018-06-18T20:36:33.973Z,19.70
2018-06-18T20:39:11.009Z,19.80
2018-06-18T20:41:45.158Z,19.70
2018-06-18T20:44:21.434Z,19.70
2018-06-18T20:46:55.636Z,19.70
2018-06-18T20:49:29.658Z,19.70
2018-06-18T20:52:03.951Z,19.70
2018-06-18T20:54:38.275Z,19.70
2018-06-18T20:57:12.530Z,19.70
2018-06-18T20:59:46.703Z,19.70
2018-06-18T21:02:20.751Z,19.70
2018-06-18T21:04:55.067Z,19.60
2018-06-18T21:07:28.989Z,19.60
2018-06-18T21:10:03.003Z,19.60
2018-06-18T21:12:37.070Z,19.50
2018-06-18T21:15:11.121Z,19.50
2018-06-18T21:17:45.319Z,19.50
2018-06-18T21:20:19.561Z,19.50
2018-06-18T21:22:53.566Z,19.50
2018-06-18T21:25:27.583Z,19.50
2018-06-18T21:28:01.971Z,19.40
2018-06-18T21:30:36.082Z,19.30
2018-06-18T21:33:10.191Z,19.30
2018-06-18T21:35:43.925Z,19.30
2018-06-18T21:38:17.994Z,19.20
2018-06-18T21:40:52.071Z,19.10
2018-06-18T21:43:26.329Z,19.10
2018-06-18T21:46:00.351Z,19.10
2018-06-18T21:48:34.115Z,19.10
2018-06-18T21:51:09.094Z,19.00
2018-06-18T21:53:43.842Z,19.00
2018-06-18T21:58:51.933Z,19.00
2018-06-18T22:01:38.311Z,19.00
2018-06-18T22:04:13.380Z,19.00
2018-06-18T22:06:47.334Z,18.90
2018-06-18T22:09:22.051Z,18.90
2018-06-18T22:11:56.924Z,18.90
2018-06-18T22:14:31.344Z,19.00
2018-06-18T22:17:06.116Z,18.90
2018-06-18T22:19:40.100Z,19.00
2018-06-18T22:22:14.199Z,18.90
2018-06-18T22:24:48.375Z,19.00
2018-06-18T22:30:01.465Z,19.00
2018-06-18T22:32:35.385Z,18.90
2018-06-18T22:35:09.642Z,18.90
2018-06-18T22:37:43.920Z,18.90
2018-06-18T22:40:17.879Z,18.80
2018-06-18T22:42:51.729Z,18.80
2018-06-18T22:45:25.860Z,18.80
2018-06-18T22:47:59.656Z,18.80
2018-06-18T22:50:33.658Z,18.70
2018-06-18T22:53:08.101Z,18.70
2018-06-18T22:55:42.383Z,18.70
2018-06-18T22:58:16.324Z,18.60
2018-06-18T23:00:53.030Z,18.60
2018-06-18T23:03:26.986Z,18.60
2018-06-18T23:06:01.029Z,18.60
2018-06-18T23:08:35.081Z,18.60
2018-06-18T23:11:09.209Z,18.50
2018-06-18T23:13:43.770Z,18.50
2018-06-18T23:16:18.607Z,18.60
2018-06-18T23:18:52.508Z,18.50
2018-06-18T23:21:26.460Z,18.50
2018-06-18T23:24:02.312Z,18.40
2018-06-18T23:26:36.449Z,18.40
2018-06-18T23:29:12.634Z,18.40
2018-06-18T23:31:46.390Z,18.40
2018-06-18T23:34:20.221Z,18.40
2018-06-18T23:36:54.198Z,18.40
2018-06-18T23:39:34.876Z,18.40
2018-06-18T23:42:08.910Z,18.30
2018-06-18T23:44:42.984Z,18.30
2018-06-18T23:47:17.345Z,18.30
2018-06-18T23:49:51.384Z,18.30
2018-06-18T23:52:25.779Z,18.30
2018-06-18T23:54:59.526Z,18.30
2018-06-18T23:57:33.524Z,18.30
